0FD9 weather

Joy Farms Airport
Defuniak Springs, Florida, United States

Public forecast

Using degrees Fahrenheit for public forecast. Weather courtesy of forecast.io.

METAR (pilot weather report)

Closest report is Defuniak Springs Airport, 5.2 nm (9.7 km) NNW. Retrieved 2017/12/11 04:35 UTC (0 seconds ago):

K54J 110435Z AUTO 28004KT 10SM CLR 05/00 A3034 RMK AO2 T00461002

TAF (pilot weather forecast)

Closest forecast is Duke Field, 21.4 nm (39.6 km) W. Retrieved 2017/12/11 02:14 UTC (2 hours ago):

TAF COR KEGI 110210Z 1102/1208 30006KT 9999 SKC QNH3028INS BECMG 1116/1117 26009KT 9999 SKC QNH3025INS TX17/1119Z TNM01/1111Z LAST NO AMDS AFT 1102 NEXT 1110 FCST BY USAF WX MET TECH